Terminal Aerodrome Forecast
Issued by NWS

Home | Current Version | Previous Version | Text Only | Print | Product List | Glossary On
Versions: 1 2 3 4 5 6 7 8 9 10 11 12 13
098
FTUS44 KSJT 232337
TAFSOA
TAF
KSOA 232337Z 2400/2424 VRB06KT P6SM VCTS SCT060CB BKN070
      TEMPO 2400/2403 VRB15G25KT TSRA SCT060CB BKN070
     FM240300 16005KT P6SM SCT100 BKN250=

USA.gov is the U.S. government's official web portal to all federal, state and local government web resources and services.